sensor_id;sensor_type;location;lat;lon;timestamp;P1;durP1;ratioP1;P2;durP2;ratioP2
24273;SDS011;12392;42.678;23.380;2022-12-07T00:00:30;24.73;;;9.60;;
24273;SDS011;12392;42.678;23.380;2022-12-07T00:02:55;21.50;;;10.32;;
24273;SDS011;12392;42.678;23.380;2022-12-07T00:05:21;23.42;;;11.15;;
24273;SDS011;12392;42.678;23.380;2022-12-07T00:07:47;25.77;;;11.23;;
24273;SDS011;12392;42.678;23.380;2022-12-07T00:10:12;25.08;;;11.27;;
24273;SDS011;12392;42.678;23.380;2022-12-07T00:12:38;20.88;;;10.85;;
24273;SDS011;12392;42.678;23.380;2022-12-07T00:15:04;19.63;;;9.27;;
24273;SDS011;12392;42.678;23.380;2022-12-07T00:17:30;24.17;;;9.65;;
24273;SDS011;12392;42.678;23.380;2022-12-07T00:19:55;18.83;;;9.73;;
24273;SDS011;12392;42.678;23.380;2022-12-07T00:22:21;25.45;;;9.82;;
24273;SDS011;12392;42.678;23.380;2022-12-07T00:24:47;20.98;;;8.63;;
24273;SDS011;12392;42.678;23.380;2022-12-07T00:27:12;20.55;;;9.27;;
24273;SDS011;12392;42.678;23.380;2022-12-07T00:29:38;22.90;;;10.45;;
24273;SDS011;12392;42.678;23.380;2022-12-07T00:32:04;22.95;;;10.07;;
24273;SDS011;12392;42.678;23.380;2022-12-07T00:34:29;22.58;;;9.45;;
24273;SDS011;12392;42.678;23.380;2022-12-07T00:36:55;21.83;;;9.60;;
24273;SDS011;12392;42.678;23.380;2022-12-07T00:39:20;22.33;;;10.15;;
24273;SDS011;12392;42.678;23.380;2022-12-07T00:41:46;23.50;;;9.25;;
24273;SDS011;12392;42.678;23.380;2022-12-07T00:44:12;26.35;;;10.57;;
24273;SDS011;12392;42.678;23.380;2022-12-07T00:46:38;24.42;;;10.13;;
24273;SDS011;12392;42.678;23.380;2022-12-07T00:49:04;18.65;;;9.93;;
24273;SDS011;12392;42.678;23.380;2022-12-07T00:51:29;21.65;;;9.80;;
24273;SDS011;12392;42.678;23.380;2022-12-07T00:53:55;21.88;;;10.23;;
24273;SDS011;12392;42.678;23.380;2022-12-07T00:56:22;23.88;;;9.15;;
24273;SDS011;12392;42.678;23.380;2022-12-07T00:58:52;20.33;;;10.18;;
24273;SDS011;12392;42.678;23.380;2022-12-07T01:01:22;19.60;;;9.73;;
24273;SDS011;12392;42.678;23.380;2022-12-07T01:03:49;23.15;;;11.32;;
24273;SDS011;12392;42.678;23.380;2022-12-07T01:06:15;20.27;;;10.65;;
24273;SDS011;12392;42.678;23.380;2022-12-07T01:08:42;20.15;;;9.75;;
24273;SDS011;12392;42.678;23.380;2022-12-07T01:11:09;18.98;;;10.45;;
24273;SDS011;12392;42.678;23.380;2022-12-07T01:13:38;20.40;;;8.77;;
24273;SDS011;12392;42.678;23.380;2022-12-07T01:16:05;23.20;;;9.27;;
24273;SDS011;12392;42.678;23.380;2022-12-07T01:18:33;21.08;;;9.95;;
24273;SDS011;12392;42.678;23.380;2022-12-07T01:23:26;19.08;;;9.40;;
24273;SDS011;12392;42.678;23.380;2022-12-07T01:25:56;23.45;;;10.05;;
24273;SDS011;12392;42.678;23.380;2022-12-07T01:28:22;19.63;;;10.23;;
24273;SDS011;12392;42.678;23.380;2022-12-07T01:31:22;25.65;;;10.25;;
24273;SDS011;12392;42.678;23.380;2022-12-07T01:33:43;28.35;;;10.32;;
24273;SDS011;12392;42.678;23.380;2022-12-07T01:36:14;21.98;;;8.95;;
24273;SDS011;12392;42.678;23.380;2022-12-07T01:38:41;20.88;;;9.90;;
24273;SDS011;12392;42.678;23.380;2022-12-07T01:41:07;23.10;;;11.45;;
24273;SDS011;12392;42.678;23.380;2022-12-07T01:43:33;27.73;;;10.68;;
24273;SDS011;12392;42.678;23.380;2022-12-07T01:45:59;32.28;;;14.65;;
24273;SDS011;12392;42.678;23.380;2022-12-07T01:48:27;33.50;;;14.30;;
24273;SDS011;12392;42.678;23.380;2022-12-07T01:51:02;30.70;;;13.70;;
24273;SDS011;12392;42.678;23.380;2022-12-07T01:53:30;28.67;;;13.48;;
24273;SDS011;12392;42.678;23.380;2022-12-07T01:55:58;31.13;;;13.15;;
24273;SDS011;12392;42.678;23.380;2022-12-07T01:58:24;23.77;;;11.57;;
24273;SDS011;12392;42.678;23.380;2022-12-07T02:00:50;25.30;;;12.07;;
24273;SDS011;12392;42.678;23.380;2022-12-07T02:03:27;28.63;;;12.73;;
24273;SDS011;12392;42.678;23.380;2022-12-07T02:05:57;29.23;;;11.93;;
24273;SDS011;12392;42.678;23.380;2022-12-07T02:08:26;25.50;;;12.07;;
24273;SDS011;12392;42.678;23.380;2022-12-07T02:11:09;20.90;;;9.45;;
24273;SDS011;12392;42.678;23.380;2022-12-07T02:13:35;28.20;;;11.60;;
24273;SDS011;12392;42.678;23.380;2022-12-07T02:21:46;19.58;;;10.48;;
24273;SDS011;12392;42.678;23.380;2022-12-07T02:29:58;21.35;;;10.85;;
24273;SDS011;12392;42.678;23.380;2022-12-07T02:40:51;23.15;;;9.85;;
24273;SDS011;12392;42.678;23.380;2022-12-07T02:43:34;22.38;;;9.50;;
24273;SDS011;12392;42.678;23.380;2022-12-07T02:46:04;25.67;;;11.48;;
24273;SDS011;12392;42.678;23.380;2022-12-07T02:48:35;20.48;;;10.10;;
24273;SDS011;12392;42.678;23.380;2022-12-07T02:51:03;25.63;;;10.82;;
24273;SDS011;12392;42.678;23.380;2022-12-07T02:53:29;26.30;;;12.15;;
24273;SDS011;12392;42.678;23.380;2022-12-07T02:59:10;21.55;;;9.88;;
24273;SDS011;12392;42.678;23.380;2022-12-07T03:06:52;22.92;;;10.02;;
24273;SDS011;12392;42.678;23.380;2022-12-07T03:09:45;21.95;;;10.07;;
24273;SDS011;12392;42.678;23.380;2022-12-07T03:12:19;24.88;;;10.32;;
24273;SDS011;12392;42.678;23.380;2022-12-07T03:14:59;18.70;;;10.00;;
24273;SDS011;12392;42.678;23.380;2022-12-07T03:17:31;20.73;;;10.25;;
24273;SDS011;12392;42.678;23.380;2022-12-07T03:20:00;26.33;;;10.98;;
24273;SDS011;12392;42.678;23.380;2022-12-07T03:22:28;24.70;;;10.13;;
24273;SDS011;12392;42.678;23.380;2022-12-07T03:24:57;22.42;;;9.82;;
24273;SDS011;12392;42.678;23.380;2022-12-07T03:29:54;26.38;;;10.98;;
24273;SDS011;12392;42.678;23.380;2022-12-07T03:43:04;21.20;;;10.98;;
24273;SDS011;12392;42.678;23.380;2022-12-07T03:45:37;17.70;;;10.57;;
24273;SDS011;12392;42.678;23.380;2022-12-07T03:51:19;26.55;;;10.98;;
24273;SDS011;12392;42.678;23.380;2022-12-07T03:53:47;27.33;;;10.75;;
24273;SDS011;12392;42.678;23.380;2022-12-07T03:56:25;22.98;;;10.80;;
24273;SDS011;12392;42.678;23.380;2022-12-07T03:58:52;24.95;;;11.18;;
24273;SDS011;12392;42.678;23.380;2022-12-07T04:01:18;26.30;;;11.48;;
24273;SDS011;12392;42.678;23.380;2022-12-07T04:03:44;25.48;;;11.65;;
24273;SDS011;12392;42.678;23.380;2022-12-07T04:06:10;27.45;;;11.73;;
24273;SDS011;12392;42.678;23.380;2022-12-07T04:08:36;25.95;;;12.25;;
24273;SDS011;12392;42.678;23.380;2022-12-07T04:11:01;32.95;;;15.55;;
24273;SDS011;12392;42.678;23.380;2022-12-07T04:13:27;37.17;;;15.88;;
24273;SDS011;12392;42.678;23.380;2022-12-07T04:15:56;30.73;;;15.50;;
24273;SDS011;12392;42.678;23.380;2022-12-07T04:18:24;32.95;;;15.07;;
24273;SDS011;12392;42.678;23.380;2022-12-07T04:20:50;29.17;;;14.20;;
24273;SDS011;12392;42.678;23.380;2022-12-07T04:23:15;33.95;;;15.52;;
24273;SDS011;12392;42.678;23.380;2022-12-07T04:25:41;39.80;;;19.63;;
24273;SDS011;12392;42.678;23.380;2022-12-07T04:28:07;40.95;;;19.15;;
24273;SDS011;12392;42.678;23.380;2022-12-07T04:30:32;43.55;;;18.15;;
24273;SDS011;12392;42.678;23.380;2022-12-07T04:32:58;44.20;;;19.33;;
24273;SDS011;12392;42.678;23.380;2022-12-07T04:35:24;38.90;;;18.05;;
24273;SDS011;12392;42.678;23.380;2022-12-07T04:37:49;39.15;;;17.58;;
24273;SDS011;12392;42.678;23.380;2022-12-07T04:40:15;35.53;;;17.80;;
24273;SDS011;12392;42.678;23.380;2022-12-07T04:42:41;47.88;;;19.98;;
24273;SDS011;12392;42.678;23.380;2022-12-07T04:45:06;40.20;;;18.02;;
24273;SDS011;12392;42.678;23.380;2022-12-07T04:47:33;39.25;;;18.25;;
24273;SDS011;12392;42.678;23.380;2022-12-07T04:49:58;44.55;;;17.73;;
24273;SDS011;12392;42.678;23.380;2022-12-07T04:52:24;41.63;;;18.88;;
24273;SDS011;12392;42.678;23.380;2022-12-07T04:54:49;36.80;;;17.45;;
24273;SDS011;12392;42.678;23.380;2022-12-07T04:57:15;35.25;;;17.80;;
24273;SDS011;12392;42.678;23.380;2022-12-07T04:59:41;38.78;;;17.17;;
24273;SDS011;12392;42.678;23.380;2022-12-07T05:02:06;37.78;;;17.50;;
24273;SDS011;12392;42.678;23.380;2022-12-07T05:04:32;38.15;;;18.40;;
24273;SDS011;12392;42.678;23.380;2022-12-07T05:06:58;40.50;;;17.40;;
24273;SDS011;12392;42.678;23.380;2022-12-07T05:09:23;34.00;;;16.92;;
24273;SDS011;12392;42.678;23.380;2022-12-07T05:11:49;36.65;;;17.80;;
24273;SDS011;12392;42.678;23.380;2022-12-07T05:14:16;37.35;;;16.77;;
24273;SDS011;12392;42.678;23.380;2022-12-07T05:16:44;36.53;;;16.33;;
24273;SDS011;12392;42.678;23.380;2022-12-07T05:19:11;38.72;;;16.80;;
24273;SDS011;12392;42.678;23.380;2022-12-07T05:21:38;39.10;;;17.70;;
24273;SDS011;12392;42.678;23.380;2022-12-07T05:24:04;30.33;;;16.38;;
24273;SDS011;12392;42.678;23.380;2022-12-07T05:26:31;30.60;;;16.05;;
24273;SDS011;12392;42.678;23.380;2022-12-07T05:28:57;39.38;;;16.95;;
24273;SDS011;12392;42.678;23.380;2022-12-07T05:31:23;31.60;;;16.35;;
24273;SDS011;12392;42.678;23.380;2022-12-07T05:33:49;33.47;;;16.73;;
24273;SDS011;12392;42.678;23.380;2022-12-07T05:36:15;38.05;;;16.05;;
24273;SDS011;12392;42.678;23.380;2022-12-07T05:38:41;37.50;;;16.25;;
24273;SDS011;12392;42.678;23.380;2022-12-07T05:41:07;30.75;;;16.48;;
24273;SDS011;12392;42.678;23.380;2022-12-07T05:43:53;37.92;;;17.10;;
24273;SDS011;12392;42.678;23.380;2022-12-07T05:46:20;37.35;;;18.10;;
24273;SDS011;12392;42.678;23.380;2022-12-07T05:48:45;37.45;;;18.48;;
24273;SDS011;12392;42.678;23.380;2022-12-07T05:51:11;35.38;;;17.75;;
24273;SDS011;12392;42.678;23.380;2022-12-07T05:53:37;42.72;;;19.23;;
24273;SDS011;12392;42.678;23.380;2022-12-07T05:56:02;38.50;;;18.65;;
24273;SDS011;12392;42.678;23.380;2022-12-07T05:58:28;38.65;;;19.90;;
24273;SDS011;12392;42.678;23.380;2022-12-07T06:01:12;40.50;;;20.05;;
24273;SDS011;12392;42.678;23.380;2022-12-07T06:03:38;38.20;;;18.77;;
24273;SDS011;12392;42.678;23.380;2022-12-07T06:06:04;34.97;;;18.83;;
24273;SDS011;12392;42.678;23.380;2022-12-07T06:08:30;39.75;;;19.50;;
24273;SDS011;12392;42.678;23.380;2022-12-07T06:10:55;42.63;;;19.58;;
24273;SDS011;12392;42.678;23.380;2022-12-07T06:13:39;47.55;;;20.35;;
24273;SDS011;12392;42.678;23.380;2022-12-07T06:16:05;38.70;;;19.63;;
24273;SDS011;12392;42.678;23.380;2022-12-07T06:18:31;63.00;;;28.05;;
24273;SDS011;12392;42.678;23.380;2022-12-07T06:20:57;48.88;;;23.38;;
24273;SDS011;12392;42.678;23.380;2022-12-07T06:23:23;82.00;;;38.13;;
24273;SDS011;12392;42.678;23.380;2022-12-07T06:25:48;49.92;;;26.35;;
24273;SDS011;12392;42.678;23.380;2022-12-07T06:28:14;47.55;;;23.33;;
24273;SDS011;12392;42.678;23.380;2022-12-07T06:30:40;63.80;;;33.03;;
24273;SDS011;12392;42.678;23.380;2022-12-07T06:33:05;80.15;;;37.28;;
24273;SDS011;12392;42.678;23.380;2022-12-07T06:35:32;67.32;;;34.42;;
24273;SDS011;12392;42.678;23.380;2022-12-07T06:37:58;65.80;;;31.90;;
24273;SDS011;12392;42.678;23.380;2022-12-07T06:40:24;49.97;;;20.90;;
24273;SDS011;12392;42.678;23.380;2022-12-07T06:42:49;48.17;;;24.83;;
24273;SDS011;12392;42.678;23.380;2022-12-07T06:45:15;66.70;;;36.30;;
24273;SDS011;12392;42.678;23.380;2022-12-07T06:47:41;87.05;;;41.35;;
24273;SDS011;12392;42.678;23.380;2022-12-07T06:50:07;85.07;;;42.65;;
24273;SDS011;12392;42.678;23.380;2022-12-07T06:52:33;66.63;;;35.47;;
24273;SDS011;12392;42.678;23.380;2022-12-07T06:54:59;66.80;;;35.58;;
24273;SDS011;12392;42.678;23.380;2022-12-07T06:57:25;78.13;;;39.85;;
24273;SDS011;12392;42.678;23.380;2022-12-07T06:59:51;69.15;;;33.50;;
24273;SDS011;12392;42.678;23.380;2022-12-07T07:02:16;70.90;;;37.28;;
24273;SDS011;12392;42.678;23.380;2022-12-07T07:04:43;68.95;;;34.72;;
24273;SDS011;12392;42.678;23.380;2022-12-07T07:07:08;70.07;;;32.97;;
24273;SDS011;12392;42.678;23.380;2022-12-07T07:09:34;67.10;;;35.35;;
24273;SDS011;12392;42.678;23.380;2022-12-07T07:12:00;60.00;;;32.80;;
24273;SDS011;12392;42.678;23.380;2022-12-07T07:14:25;64.03;;;32.47;;
24273;SDS011;12392;42.678;23.380;2022-12-07T07:16:51;65.32;;;33.00;;
24273;SDS011;12392;42.678;23.380;2022-12-07T07:19:17;66.78;;;33.20;;
24273;SDS011;12392;42.678;23.380;2022-12-07T07:21:43;70.30;;;34.25;;
24273;SDS011;12392;42.678;23.380;2022-12-07T07:24:08;55.70;;;28.95;;
24273;SDS011;12392;42.678;23.380;2022-12-07T07:26:34;64.40;;;33.65;;
24273;SDS011;12392;42.678;23.380;2022-12-07T07:29:00;59.53;;;27.85;;
24273;SDS011;12392;42.678;23.380;2022-12-07T07:31:25;49.35;;;24.77;;
24273;SDS011;12392;42.678;23.380;2022-12-07T07:33:51;71.57;;;38.45;;
24273;SDS011;12392;42.678;23.380;2022-12-07T07:36:17;70.07;;;34.65;;
24273;SDS011;12392;42.678;23.380;2022-12-07T07:38:43;129.70;;;63.38;;
24273;SDS011;12392;42.678;23.380;2022-12-07T07:41:08;107.00;;;57.65;;
24273;SDS011;12392;42.678;23.380;2022-12-07T07:43:34;89.55;;;46.28;;
24273;SDS011;12392;42.678;23.380;2022-12-07T07:46:00;89.50;;;44.80;;
24273;SDS011;12392;42.678;23.380;2022-12-07T07:48:26;51.75;;;25.55;;
24273;SDS011;12392;42.678;23.380;2022-12-07T07:50:51;46.35;;;20.83;;
24273;SDS011;12392;42.678;23.380;2022-12-07T07:53:17;42.40;;;18.58;;
24273;SDS011;12392;42.678;23.380;2022-12-07T07:55:50;39.92;;;17.52;;
24273;SDS011;12392;42.678;23.380;2022-12-07T07:58:19;39.50;;;16.15;;
24273;SDS011;12392;42.678;23.380;2022-12-07T08:00:45;32.70;;;15.73;;
24273;SDS011;12392;42.678;23.380;2022-12-07T08:03:11;30.83;;;14.73;;
24273;SDS011;12392;42.678;23.380;2022-12-07T08:05:37;30.55;;;13.73;;
24273;SDS011;12392;42.678;23.380;2022-12-07T08:08:03;33.05;;;14.77;;
24273;SDS011;12392;42.678;23.380;2022-12-07T08:10:29;26.95;;;13.90;;
24273;SDS011;12392;42.678;23.380;2022-12-07T08:12:57;22.92;;;12.48;;
24273;SDS011;12392;42.678;23.380;2022-12-07T08:15:39;24.30;;;12.95;;
24273;SDS011;12392;42.678;23.380;2022-12-07T08:18:07;29.05;;;13.02;;
24273;SDS011;12392;42.678;23.380;2022-12-07T08:20:33;30.45;;;12.93;;
24273;SDS011;12392;42.678;23.380;2022-12-07T08:23:00;29.10;;;14.20;;
24273;SDS011;12392;42.678;23.380;2022-12-07T08:25:26;22.23;;;11.93;;
24273;SDS011;12392;42.678;23.380;2022-12-07T08:27:52;26.27;;;13.93;;
24273;SDS011;12392;42.678;23.380;2022-12-07T08:30:18;29.42;;;13.68;;
24273;SDS011;12392;42.678;23.380;2022-12-07T08:32:45;28.17;;;14.40;;
24273;SDS011;12392;42.678;23.380;2022-12-07T08:35:12;29.73;;;14.77;;
24273;SDS011;12392;42.678;23.380;2022-12-07T08:37:38;36.03;;;15.98;;
24273;SDS011;12392;42.678;23.380;2022-12-07T08:40:05;35.65;;;14.00;;
24273;SDS011;12392;42.678;23.380;2022-12-07T08:42:31;35.28;;;15.20;;
24273;SDS011;12392;42.678;23.380;2022-12-07T08:45:04;29.00;;;14.40;;
24273;SDS011;12392;42.678;23.380;2022-12-07T08:47:39;27.40;;;14.52;;
24273;SDS011;12392;42.678;23.380;2022-12-07T08:50:07;30.83;;;15.73;;
24273;SDS011;12392;42.678;23.380;2022-12-07T08:52:35;32.20;;;15.27;;
24273;SDS011;12392;42.678;23.380;2022-12-07T08:55:01;42.60;;;19.05;;
24273;SDS011;12392;42.678;23.380;2022-12-07T08:57:28;36.40;;;16.40;;
24273;SDS011;12392;42.678;23.380;2022-12-07T08:59:54;30.63;;;14.80;;
24273;SDS011;12392;42.678;23.380;2022-12-07T09:02:20;27.75;;;13.55;;
24273;SDS011;12392;42.678;23.380;2022-12-07T09:04:45;24.83;;;12.73;;
24273;SDS011;12392;42.678;23.380;2022-12-07T09:07:11;28.83;;;13.65;;
24273;SDS011;12392;42.678;23.380;2022-12-07T09:09:37;28.83;;;13.27;;
24273;SDS011;12392;42.678;23.380;2022-12-07T09:12:02;26.73;;;13.32;;
24273;SDS011;12392;42.678;23.380;2022-12-07T09:14:28;29.25;;;13.88;;
24273;SDS011;12392;42.678;23.380;2022-12-07T09:16:54;36.88;;;15.05;;
24273;SDS011;12392;42.678;23.380;2022-12-07T09:19:20;28.25;;;13.43;;
24273;SDS011;12392;42.678;23.380;2022-12-07T09:21:45;30.35;;;14.50;;
24273;SDS011;12392;42.678;23.380;2022-12-07T09:24:12;30.02;;;15.90;;
24273;SDS011;12392;42.678;23.380;2022-12-07T09:26:38;28.27;;;14.98;;
24273;SDS011;12392;42.678;23.380;2022-12-07T09:29:05;31.42;;;15.50;;
24273;SDS011;12392;42.678;23.380;2022-12-07T09:31:31;31.75;;;15.80;;
24273;SDS011;12392;42.678;23.380;2022-12-07T09:33:57;34.13;;;16.35;;
24273;SDS011;12392;42.678;23.380;2022-12-07T09:36:24;25.67;;;14.77;;
24273;SDS011;12392;42.678;23.380;2022-12-07T09:38:50;37.30;;;16.00;;
24273;SDS011;12392;42.678;23.380;2022-12-07T09:41:16;31.45;;;14.90;;
24273;SDS011;12392;42.678;23.380;2022-12-07T09:43:42;34.22;;;16.75;;
24273;SDS011;12392;42.678;23.380;2022-12-07T09:46:09;41.65;;;17.90;;
24273;SDS011;12392;42.678;23.380;2022-12-07T09:48:38;34.60;;;17.30;;
24273;SDS011;12392;42.678;23.380;2022-12-07T09:51:18;37.58;;;18.42;;
24273;SDS011;12392;42.678;23.380;2022-12-07T09:53:45;35.63;;;18.40;;
24273;SDS011;12392;42.678;23.380;2022-12-07T09:56:14;39.35;;;19.13;;
24273;SDS011;12392;42.678;23.380;2022-12-07T09:58:41;36.90;;;17.88;;
24273;SDS011;12392;42.678;23.380;2022-12-07T10:01:17;35.80;;;17.23;;
24273;SDS011;12392;42.678;23.380;2022-12-07T10:03:54;32.58;;;14.30;;
24273;SDS011;12392;42.678;23.380;2022-12-07T10:06:24;29.98;;;15.98;;
24273;SDS011;12392;42.678;23.380;2022-12-07T10:08:49;35.80;;;15.60;;
24273;SDS011;12392;42.678;23.380;2022-12-07T10:11:15;36.35;;;16.15;;
24273;SDS011;12392;42.678;23.380;2022-12-07T10:13:45;33.28;;;15.25;;
24273;SDS011;12392;42.678;23.380;2022-12-07T10:18:58;31.85;;;15.30;;
24273;SDS011;12392;42.678;23.380;2022-12-07T10:24:46;33.70;;;16.52;;
24273;SDS011;12392;42.678;23.380;2022-12-07T10:27:31;36.55;;;16.90;;
24273;SDS011;12392;42.678;23.380;2022-12-07T10:30:07;27.55;;;14.57;;
24273;SDS011;12392;42.678;23.380;2022-12-07T10:32:44;28.25;;;12.43;;
24273;SDS011;12392;42.678;23.380;2022-12-07T10:35:28;23.20;;;11.65;;
24273;SDS011;12392;42.678;23.380;2022-12-07T10:37:56;18.48;;;9.85;;
24273;SDS011;12392;42.678;23.380;2022-12-07T10:40:26;27.65;;;10.90;;
24273;SDS011;12392;42.678;23.380;2022-12-07T10:45:29;18.70;;;9.95;;
24273;SDS011;12392;42.678;23.380;2022-12-07T10:53:27;28.17;;;10.73;;
24273;SDS011;12392;42.678;23.380;2022-12-07T10:56:01;23.83;;;11.60;;
24273;SDS011;12392;42.678;23.380;2022-12-07T11:06:45;22.50;;;10.70;;
24273;SDS011;12392;42.678;23.380;2022-12-07T11:09:24;21.70;;;10.50;;
24273;SDS011;12392;42.678;23.380;2022-12-07T11:25:16;19.10;;;9.10;;
24273;SDS011;12392;42.678;23.380;2022-12-07T11:28:02;22.90;;;9.80;;
24273;SDS011;12392;42.678;23.380;2022-12-07T11:30:42;12.90;;;6.70;;
24273;SDS011;12392;42.678;23.380;2022-12-07T11:33:28;18.65;;;7.97;;
24273;SDS011;12392;42.678;23.380;2022-12-07T11:39:22;17.88;;;7.55;;
24273;SDS011;12392;42.678;23.380;2022-12-07T11:45:03;14.90;;;7.85;;
24273;SDS011;12392;42.678;23.380;2022-12-07T11:50:27;15.88;;;8.20;;
24273;SDS011;12392;42.678;23.380;2022-12-07T11:53:17;15.80;;;7.82;;
24273;SDS011;12392;42.678;23.380;2022-12-07T11:55:53;19.05;;;7.53;;
24273;SDS011;12392;42.678;23.380;2022-12-07T12:03:42;17.80;;;8.10;;
24273;SDS011;12392;42.678;23.380;2022-12-07T12:06:10;18.02;;;8.18;;
24273;SDS011;12392;42.678;23.380;2022-12-07T12:08:38;18.25;;;8.90;;
24273;SDS011;12392;42.678;23.380;2022-12-07T12:11:21;18.30;;;8.30;;
24273;SDS011;12392;42.678;23.380;2022-12-07T12:14:13;16.67;;;8.13;;
24273;SDS011;12392;42.678;23.380;2022-12-07T12:19:32;15.07;;;7.90;;
24273;SDS011;12392;42.678;23.380;2022-12-07T12:22:19;15.25;;;7.65;;
24273;SDS011;12392;42.678;23.380;2022-12-07T12:24:51;18.08;;;8.73;;
24273;SDS011;12392;42.678;23.380;2022-12-07T12:27:21;20.88;;;9.73;;
24273;SDS011;12392;42.678;23.380;2022-12-07T12:29:55;16.58;;;8.27;;
24273;SDS011;12392;42.678;23.380;2022-12-07T12:32:27;21.20;;;9.32;;
24273;SDS011;12392;42.678;23.380;2022-12-07T12:35:01;14.18;;;8.20;;
24273;SDS011;12392;42.678;23.380;2022-12-07T12:37:45;19.55;;;9.82;;
24273;SDS011;12392;42.678;23.380;2022-12-07T12:40:37;15.27;;;8.07;;
24273;SDS011;12392;42.678;23.380;2022-12-07T12:42:57;19.58;;;9.38;;
24273;SDS011;12392;42.678;23.380;2022-12-07T12:45:27;17.58;;;7.95;;
24273;SDS011;12392;42.678;23.380;2022-12-07T12:48:03;21.58;;;9.38;;
24273;SDS011;12392;42.678;23.380;2022-12-07T12:50:30;22.70;;;9.20;;
24273;SDS011;12392;42.678;23.380;2022-12-07T12:53:21;18.98;;;9.93;;
24273;SDS011;12392;42.678;23.380;2022-12-07T13:01:41;17.45;;;8.82;;
24273;SDS011;12392;42.678;23.380;2022-12-07T13:04:16;20.58;;;9.15;;
24273;SDS011;12392;42.678;23.380;2022-12-07T13:06:47;17.67;;;8.57;;
24273;SDS011;12392;42.678;23.380;2022-12-07T13:09:18;18.98;;;8.85;;
24273;SDS011;12392;42.678;23.380;2022-12-07T13:11:48;16.70;;;8.88;;
24273;SDS011;12392;42.678;23.380;2022-12-07T13:20:02;17.98;;;8.27;;
24273;SDS011;12392;42.678;23.380;2022-12-07T13:24:59;22.98;;;8.93;;
24273;SDS011;12392;42.678;23.380;2022-12-07T13:27:28;19.63;;;8.75;;
24273;SDS011;12392;42.678;23.380;2022-12-07T13:29:55;19.00;;;8.32;;
24273;SDS011;12392;42.678;23.380;2022-12-07T13:32:28;21.20;;;8.68;;
24273;SDS011;12392;42.678;23.380;2022-12-07T13:34:54;16.73;;;7.60;;
24273;SDS011;12392;42.678;23.380;2022-12-07T13:39:50;16.05;;;7.70;;
24273;SDS011;12392;42.678;23.380;2022-12-07T13:42:27;16.75;;;7.60;;
24273;SDS011;12392;42.678;23.380;2022-12-07T13:44:58;14.98;;;7.43;;
24273;SDS011;12392;42.678;23.380;2022-12-07T13:47:34;19.70;;;6.95;;
24273;SDS011;12392;42.678;23.380;2022-12-07T13:50:23;12.90;;;7.30;;
24273;SDS011;12392;42.678;23.380;2022-12-07T13:52:49;12.95;;;7.20;;
24273;SDS011;12392;42.678;23.380;2022-12-07T13:55:15;13.25;;;7.20;;
24273;SDS011;12392;42.678;23.380;2022-12-07T13:57:44;13.10;;;6.97;;
24273;SDS011;12392;42.678;23.380;2022-12-07T14:00:19;18.63;;;7.45;;
24273;SDS011;12392;42.678;23.380;2022-12-07T14:03:20;14.05;;;6.97;;
24273;SDS011;12392;42.678;23.380;2022-12-07T14:06:05;16.52;;;7.47;;
24273;SDS011;12392;42.678;23.380;2022-12-07T14:08:42;15.38;;;6.55;;
24273;SDS011;12392;42.678;23.380;2022-12-07T14:11:10;16.27;;;7.30;;
24273;SDS011;12392;42.678;23.380;2022-12-07T14:13:44;15.30;;;6.78;;
24273;SDS011;12392;42.678;23.380;2022-12-07T14:19:00;16.55;;;6.68;;
24273;SDS011;12392;42.678;23.380;2022-12-07T14:21:34;13.23;;;6.75;;
24273;SDS011;12392;42.678;23.380;2022-12-07T14:24:10;15.32;;;7.40;;
24273;SDS011;12392;42.678;23.380;2022-12-07T14:26:41;19.83;;;8.35;;
24273;SDS011;12392;42.678;23.380;2022-12-07T14:31:56;16.23;;;8.70;;
24273;SDS011;12392;42.678;23.380;2022-12-07T14:34:23;17.05;;;7.43;;
24273;SDS011;12392;42.678;23.380;2022-12-07T14:36:49;15.13;;;8.05;;
24273;SDS011;12392;42.678;23.380;2022-12-07T14:39:15;15.10;;;7.10;;
24273;SDS011;12392;42.678;23.380;2022-12-07T14:41:41;15.52;;;7.38;;
24273;SDS011;12392;42.678;23.380;2022-12-07T14:44:15;18.20;;;6.78;;
24273;SDS011;12392;42.678;23.380;2022-12-07T14:46:42;21.65;;;7.88;;
24273;SDS011;12392;42.678;23.380;2022-12-07T14:49:07;20.33;;;7.80;;
24273;SDS011;12392;42.678;23.380;2022-12-07T14:51:33;18.70;;;8.13;;
24273;SDS011;12392;42.678;23.380;2022-12-07T14:54:02;19.48;;;7.93;;
24273;SDS011;12392;42.678;23.380;2022-12-07T14:56:29;22.70;;;9.40;;
24273;SDS011;12392;42.678;23.380;2022-12-07T14:58:54;18.33;;;8.75;;
24273;SDS011;12392;42.678;23.380;2022-12-07T15:01:20;21.65;;;9.07;;
24273;SDS011;12392;42.678;23.380;2022-12-07T15:03:46;20.10;;;8.63;;
24273;SDS011;12392;42.678;23.380;2022-12-07T15:06:15;20.85;;;8.95;;
24273;SDS011;12392;42.678;23.380;2022-12-07T15:08:42;24.20;;;8.80;;
24273;SDS011;12392;42.678;23.380;2022-12-07T15:11:18;19.25;;;8.05;;
24273;SDS011;12392;42.678;23.380;2022-12-07T15:13:44;19.35;;;8.35;;
24273;SDS011;12392;42.678;23.380;2022-12-07T15:16:28;17.95;;;7.95;;
24273;SDS011;12392;42.678;23.380;2022-12-07T15:18:54;33.15;;;15.52;;
24273;SDS011;12392;42.678;23.380;2022-12-07T15:21:19;25.42;;;10.70;;
24273;SDS011;12392;42.678;23.380;2022-12-07T15:23:45;27.55;;;11.23;;
24273;SDS011;12392;42.678;23.380;2022-12-07T15:26:12;23.23;;;10.40;;
24273;SDS011;12392;42.678;23.380;2022-12-07T15:28:38;22.23;;;9.88;;
24273;SDS011;12392;42.678;23.380;2022-12-07T15:31:10;25.25;;;8.88;;
24273;SDS011;12392;42.678;23.380;2022-12-07T15:33:36;21.30;;;10.23;;
24273;SDS011;12392;42.678;23.380;2022-12-07T15:36:02;20.85;;;10.82;;
24273;SDS011;12392;42.678;23.380;2022-12-07T15:38:28;26.05;;;9.70;;
24273;SDS011;12392;42.678;23.380;2022-12-07T15:40:55;21.00;;;9.95;;
24273;SDS011;12392;42.678;23.380;2022-12-07T15:43:21;24.02;;;10.43;;
24273;SDS011;12392;42.678;23.380;2022-12-07T15:46:05;31.50;;;10.25;;
24273;SDS011;12392;42.678;23.380;2022-12-07T15:48:31;28.23;;;11.23;;
24273;SDS011;12392;42.678;23.380;2022-12-07T15:51:03;31.98;;;12.07;;
24273;SDS011;12392;42.678;23.380;2022-12-07T15:53:30;34.58;;;12.20;;
24273;SDS011;12392;42.678;23.380;2022-12-07T15:55:56;29.48;;;11.18;;
24273;SDS011;12392;42.678;23.380;2022-12-07T15:58:22;33.60;;;12.25;;
24273;SDS011;12392;42.678;23.380;2022-12-07T16:00:47;38.35;;;12.60;;
24273;SDS011;12392;42.678;23.380;2022-12-07T16:03:13;33.72;;;14.02;;
24273;SDS011;12392;42.678;23.380;2022-12-07T16:05:39;34.10;;;12.25;;
24273;SDS011;12392;42.678;23.380;2022-12-07T16:08:05;30.23;;;12.18;;
24273;SDS011;12392;42.678;23.380;2022-12-07T16:10:30;24.67;;;12.52;;
24273;SDS011;12392;42.678;23.380;2022-12-07T16:12:56;31.67;;;13.48;;
24273;SDS011;12392;42.678;23.380;2022-12-07T16:15:22;33.47;;;13.30;;
24273;SDS011;12392;42.678;23.380;2022-12-07T16:17:49;27.58;;;11.80;;
24273;SDS011;12392;42.678;23.380;2022-12-07T16:20:15;24.80;;;11.43;;
24273;SDS011;12392;42.678;23.380;2022-12-07T16:22:41;25.73;;;12.63;;
24273;SDS011;12392;42.678;23.380;2022-12-07T16:25:07;30.13;;;12.55;;